Monroe City, Indiana
Current Conditions -  °F | °C
As of 8:35 AM on Monday 20 Oct 2014 (Local Time) from KDCY Reporting Station
Overcast Overcast  
Wind Chill: 53°   Ceiling: 3800
Heat Index: 53°   Visibility: 10mi
Dew Point: 48°   Wind: 10mph
Humidity: 83%   Direction: 200°SSW
Pressure: 29.98"   Gusts: NA
Location:  38.62°N, 87.35°W
Report Text: KDCY 201335Z AUTO 20009KT 10SM OVC038 12/09 A2998 RMK AO2 T01180090
Loading
Personal Weather Stations






























Interactive Weather Map
Tropical Storm Tracking
New forecast layout! Learn more

10-Day Weather Forecast

Advertisements
Track Severe Weather on mobile